Arkville, New York
Current Conditions -  °F | °C
As of 3:15 PM on Thursday 18 Dec 2014 (Local Time) from KMSV Reporting Station
Overcast Overcast  
Wind Chill: 20°   Ceiling: 1500
Heat Index: 30°   Visibility: 10mi
Dew Point: 27°   Wind: 14mph
Humidity: 86%   Direction: 300°WNW
Pressure: 29.93"   Gusts: 20mph
Location:  42.15°N, 74.62°W
Report Text: KMSV 182015Z AUTO 30012G17KT 10SM OVC015 M01/M03 A2993 RMK AO1
Loading
Personal Weather Stations






























Interactive Weather Map New forecast layout! Learn more

10-Day Weather Forecast

Advertisements
Track Severe Weather on mobile